createdAt,value
2023-04-14T00:02:06.598Z,4.12
2023-04-14T00:04:33.742Z,4.29
2023-04-14T00:07:00.799Z,4.32
2023-04-14T00:09:27.438Z,4.26
2023-04-14T00:11:54.188Z,4.04
2023-04-14T00:14:20.975Z,3.91
2023-04-14T00:16:47.776Z,3.91
2023-04-14T00:19:14.568Z,3.93
2023-04-14T00:21:41.248Z,3.96
2023-04-14T00:24:07.903Z,4.03
2023-04-14T00:26:34.499Z,4.07
2023-04-14T00:29:01.327Z,4.27
2023-04-14T00:31:28.216Z,4.31
2023-04-14T00:33:55.027Z,4.32
2023-04-14T00:36:21.674Z,4.40
2023-04-14T00:38:48.616Z,4.38
2023-04-14T00:41:15.274Z,4.26
2023-04-14T00:43:41.906Z,4.19
2023-04-14T00:46:08.624Z,4.08
2023-04-14T00:48:35.468Z,4.05
2023-04-14T00:51:02.489Z,4.07
2023-04-14T00:53:29.332Z,4.19
2023-04-14T00:55:56.222Z,4.14
2023-04-14T00:58:22.970Z,4.22
2023-04-14T01:00:55.485Z,4.20
2023-04-14T01:03:24.579Z,4.26
2023-04-14T01:05:51.791Z,4.26
2023-04-14T01:08:19.723Z,4.26
2023-04-14T01:10:57.528Z,4.27
2023-04-14T01:13:33.460Z,4.29
2023-04-14T01:16:04.499Z,4.31
2023-04-14T01:18:38.137Z,4.38
2023-04-14T01:21:13.685Z,4.35
2023-04-14T01:24:13.629Z,4.40
2023-04-14T01:26:41.685Z,4.36
2023-04-14T01:29:39.269Z,4.26
2023-04-14T01:32:15.079Z,4.40
2023-04-14T01:35:07.741Z,4.46
2023-04-14T01:37:36.857Z,4.31
2023-04-14T01:40:11.201Z,4.29
2023-04-14T01:42:37.963Z,4.35
2023-04-14T01:45:16.909Z,4.37
2023-04-14T01:47:44.619Z,4.31
2023-04-14T01:50:12.500Z,4.23
2023-04-14T01:52:39.845Z,4.34
2023-04-14T01:55:07.827Z,4.32
2023-04-14T01:57:36.253Z,4.41
2023-04-14T02:00:04.745Z,4.41
2023-04-14T02:02:32.572Z,4.40
2023-04-14T02:04:59.823Z,4.36
2023-04-14T02:07:26.800Z,4.37
2023-04-14T02:09:53.988Z,4.34
2023-04-14T02:12:23.263Z,4.37
2023-04-14T02:14:51.393Z,4.47
2023-04-14T02:17:18.634Z,4.52
2023-04-14T02:19:45.411Z,4.51
2023-04-14T02:22:12.150Z,4.32
2023-04-14T02:24:38.858Z,4.48
2023-04-14T02:27:16.584Z,4.49
2023-04-14T02:29:48.795Z,4.51
2023-04-14T02:32:21.492Z,4.48
2023-04-14T02:34:54.190Z,4.43
2023-04-14T02:37:27.309Z,4.44
2023-04-14T02:39:59.248Z,4.43
2023-04-14T02:42:27.215Z,4.43
2023-04-14T02:45:01.129Z,4.41
2023-04-14T02:47:42.027Z,4.40
2023-04-14T02:50:11.845Z,4.55
2023-04-14T02:52:39.190Z,4.60
2023-04-14T02:55:06.390Z,4.59
2023-04-14T02:57:33.368Z,4.53
2023-04-14T03:00:00.453Z,4.52
2023-04-14T03:02:27.945Z,4.49
2023-04-14T03:04:54.945Z,4.54
2023-04-14T03:07:21.989Z,4.53
2023-04-14T03:09:51.863Z,4.58
2023-04-14T03:12:19.523Z,4.55
2023-04-14T03:14:46.879Z,4.52
2023-04-14T03:17:14.716Z,4.64
2023-04-14T03:19:42.492Z,4.74
2023-04-14T03:22:11.075Z,4.70
2023-04-14T03:24:39.030Z,4.73
2023-04-14T03:27:09.364Z,4.83
2023-04-14T03:29:47.434Z,4.89
2023-04-14T03:32:15.378Z,4.86
2023-04-14T03:34:43.183Z,4.79
2023-04-14T03:37:10.374Z,4.71
2023-04-14T03:39:39.163Z,4.69
2023-04-14T03:42:08.072Z,4.75
2023-04-14T03:44:36.718Z,4.76
2023-04-14T03:47:04.079Z,4.94
2023-04-14T03:49:35.059Z,4.89
2023-04-14T03:52:05.241Z,4.80
2023-04-14T03:54:32.975Z,4.92
2023-04-14T03:57:02.105Z,4.89
2023-04-14T03:59:29.819Z,4.88
2023-04-14T04:01:57.204Z,4.91
2023-04-14T04:04:26.893Z,4.90
2023-04-14T04:06:53.831Z,4.86
2023-04-14T04:09:22.616Z,4.95
2023-04-14T04:11:49.549Z,4.94
2023-04-14T04:14:18.172Z,4.92
2023-04-14T04:16:49.676Z,4.99
2023-04-14T04:19:19.238Z,4.96
2023-04-14T04:21:48.705Z,5.03
2023-04-14T04:24:17.359Z,5.05
2023-04-14T04:26:44.075Z,5.07
2023-04-14T04:29:10.922Z,5.12
2023-04-14T04:31:37.846Z,5.12
2023-04-14T04:34:06.123Z,5.16
2023-04-14T04:36:36.121Z,5.15
2023-04-14T04:39:03.410Z,5.13
2023-04-14T04:41:30.703Z,5.18
2023-04-14T04:43:59.036Z,5.11
2023-04-14T04:46:44.490Z,5.12
2023-04-14T04:49:11.102Z,5.03
2023-04-14T04:51:37.885Z,5.15
2023-04-14T04:54:04.667Z,5.26
2023-04-14T04:56:31.652Z,5.24
2023-04-14T04:58:59.497Z,5.23
2023-04-14T05:01:28.712Z,5.21
2023-04-14T05:03:55.519Z,5.22
2023-04-14T05:06:22.306Z,5.22
2023-04-14T05:08:51.803Z,5.31
2023-04-14T05:11:18.596Z,5.23
2023-04-14T05:13:45.387Z,5.32
2023-04-14T05:16:15.367Z,5.34
2023-04-14T05:18:42.944Z,5.39
2023-04-14T05:21:13.306Z,5.40
2023-04-14T05:23:42.276Z,5.43
2023-04-14T05:26:35.104Z,5.41
2023-04-14T05:28:56.262Z,5.45
2023-04-14T05:31:23.213Z,5.50
2023-04-14T05:33:49.901Z,5.59
2023-04-14T05:36:16.539Z,5.72
2023-04-14T05:38:43.236Z,5.71
2023-04-14T05:41:09.871Z,5.72
2023-04-14T05:43:37.463Z,5.81
2023-04-14T05:46:04.340Z,5.92
2023-04-14T05:48:33.322Z,5.98
2023-04-14T05:51:00.342Z,6.03
2023-04-14T05:53:27.830Z,6.06
2023-04-14T05:55:54.563Z,6.05
2023-04-14T05:58:21.680Z,6.06
2023-04-14T06:00:48.325Z,5.99
2023-04-14T06:03:16.784Z,6.09
2023-04-14T06:05:43.832Z,6.18
2023-04-14T06:08:10.573Z,6.11
2023-04-14T06:10:37.248Z,6.13
2023-04-14T06:13:03.984Z,6.29
2023-04-14T06:15:31.150Z,6.29
2023-04-14T06:17:57.915Z,6.30
2023-04-14T06:20:25.734Z,6.27
2023-04-14T06:22:52.475Z,6.28
2023-04-14T06:25:19.277Z,6.34
2023-04-14T06:27:46.045Z,6.41
2023-04-14T06:30:15.332Z,6.41
2023-04-14T06:32:42.126Z,6.35
2023-04-14T06:35:12.214Z,6.44
2023-04-14T06:37:45.849Z,6.40
2023-04-14T06:40:12.721Z,6.43
2023-04-14T06:42:39.299Z,6.43
2023-04-14T06:45:06.337Z,6.53
2023-04-14T06:47:32.964Z,6.55
2023-04-14T06:49:59.619Z,6.49
2023-04-14T06:52:26.196Z,6.50
2023-04-14T06:54:52.921Z,6.51
2023-04-14T06:57:19.526Z,6.55
2023-04-14T06:59:46.657Z,6.55
2023-04-14T07:02:13.279Z,6.49
2023-04-14T07:04:39.996Z,6.51
2023-04-14T07:07:06.679Z,6.51
2023-04-14T07:09:33.322Z,6.52
2023-04-14T07:11:59.941Z,6.56
2023-04-14T07:14:26.632Z,6.62
2023-04-14T07:16:53.560Z,6.58
2023-04-14T07:19:20.385Z,6.59
2023-04-14T07:21:47.239Z,6.69
2023-04-14T07:24:15.535Z,6.75
2023-04-14T07:26:43.580Z,6.71
2023-04-14T07:29:10.466Z,6.70
2023-04-14T07:31:38.081Z,6.69
2023-04-14T07:34:04.884Z,6.74
2023-04-14T07:36:32.580Z,6.78
2023-04-14T07:38:59.541Z,6.81
2023-04-14T07:41:27.387Z,6.78
2023-04-14T07:43:59.585Z,6.84
2023-04-14T07:46:26.476Z,6.90
2023-04-14T07:48:53.442Z,6.97
2023-04-14T07:51:20.711Z,7.05
2023-04-14T07:53:47.390Z,7.12
2023-04-14T07:56:15.051Z,7.12
2023-04-14T07:58:41.665Z,7.28
2023-04-14T08:01:08.309Z,7.27
2023-04-14T08:03:37.524Z,7.31
2023-04-14T08:06:08.105Z,7.32
2023-04-14T08:08:35.556Z,7.38
2023-04-14T08:11:02.150Z,7.47
2023-04-14T08:13:28.819Z,7.45
2023-04-14T08:15:56.280Z,7.55
2023-04-14T08:18:22.968Z,7.54
2023-04-14T08:20:50.861Z,7.59
2023-04-14T08:23:17.496Z,7.68
2023-04-14T08:25:44.636Z,7.72
2023-04-14T08:28:11.578Z,7.80
2023-04-14T08:30:38.430Z,7.83
2023-04-14T08:33:05.234Z,7.92
2023-04-14T08:35:39.630Z,7.89
2023-04-14T08:38:08.225Z,8.04
2023-04-14T08:40:38.345Z,8.02
2023-04-14T08:43:05.700Z,8.06
2023-04-14T08:45:32.984Z,8.12
2023-04-14T08:48:00.831Z,8.20
2023-04-14T08:50:33.107Z,8.29
2023-04-14T08:53:02.099Z,8.34
2023-04-14T08:55:30.030Z,8.32
2023-04-14T08:57:57.930Z,8.33
2023-04-14T09:00:25.145Z,8.40
2023-04-14T09:02:52.138Z,8.38
2023-04-14T09:05:18.883Z,8.46
2023-04-14T09:07:46.104Z,8.51
2023-04-14T09:10:12.733Z,8.48
2023-04-14T09:12:41.662Z,8.59
2023-04-14T09:15:09.194Z,8.67
2023-04-14T09:17:36.769Z,8.74
2023-04-14T09:20:36.526Z,8.68
2023-04-14T09:22:51.240Z,8.83
2023-04-14T09:25:18.724Z,8.60
2023-04-14T09:27:45.576Z,8.60
2023-04-14T09:30:12.474Z,8.66
2023-04-14T09:32:39.874Z,8.68
2023-04-14T09:35:07.785Z,8.44
2023-04-14T09:37:44.448Z,8.51
2023-04-14T09:40:12.010Z,8.13
2023-04-14T09:42:40.378Z,8.09
2023-04-14T09:45:08.393Z,8.21
2023-04-14T09:47:35.222Z,8.21
2023-04-14T09:50:05.304Z,8.35
2023-04-14T09:52:40.904Z,8.46
2023-04-14T09:55:12.703Z,8.46
2023-04-14T09:57:43.967Z,8.57
2023-04-14T10:00:24.601Z,8.57
2023-04-14T10:02:55.693Z,8.49
2023-04-14T10:05:26.443Z,8.58
2023-04-14T10:07:53.169Z,8.57
2023-04-14T10:10:19.819Z,8.55
2023-04-14T10:12:46.661Z,8.65
2023-04-14T10:15:15.368Z,8.53
2023-04-14T10:17:42.834Z,8.65
2023-04-14T10:20:10.299Z,8.69
2023-04-14T10:22:39.080Z,8.57
2023-04-14T10:25:08.337Z,8.68
2023-04-14T10:27:35.516Z,8.66
2023-04-14T10:30:02.465Z,8.64
2023-04-14T10:32:32.485Z,8.50
2023-04-14T10:35:06.728Z,8.56
2023-04-14T10:37:33.309Z,8.43
2023-04-14T10:40:01.908Z,8.54
2023-04-14T10:42:32.989Z,8.12
2023-04-14T10:45:08.077Z,8.17
2023-04-14T10:47:36.141Z,8.37
2023-04-14T10:50:22.141Z,8.38
2023-04-14T10:52:50.248Z,8.29
2023-04-14T10:55:17.819Z,8.26
2023-04-14T10:57:45.840Z,8.47
2023-04-14T11:00:25.108Z,8.50
2023-04-14T11:02:56.764Z,8.33
2023-04-14T11:05:24.376Z,8.33
2023-04-14T11:07:58.809Z,8.37
2023-04-14T11:10:31.334Z,8.44
2023-04-14T11:13:02.237Z,8.44
2023-04-14T11:15:57.923Z,8.54
2023-04-14T11:18:27.873Z,8.50
2023-04-14T11:20:54.950Z,8.28
2023-04-14T11:23:27.672Z,8.19
2023-04-14T11:25:57.527Z,8.15
2023-04-14T11:28:31.996Z,7.89
2023-04-14T11:31:00.045Z,8.02
2023-04-14T11:33:37.554Z,8.00
2023-04-14T11:36:05.996Z,8.07
2023-04-14T11:38:35.587Z,8.06
2023-04-14T11:41:02.354Z,8.18
2023-04-14T11:43:32.861Z,8.29
2023-04-14T11:46:03.059Z,8.30
2023-04-14T11:48:30.194Z,8.27
2023-04-14T11:51:02.632Z,8.22
2023-04-14T11:53:29.642Z,8.43
2023-04-14T11:55:57.661Z,8.38
2023-04-14T11:58:28.809Z,8.18
2023-04-14T12:00:57.498Z,8.28
2023-04-14T12:03:29.653Z,8.40
2023-04-14T12:06:01.704Z,8.42
2023-04-14T12:08:32.704Z,8.23
2023-04-14T12:11:11.576Z,8.13
2023-04-14T12:13:42.452Z,8.07
2023-04-14T12:16:21.229Z,8.10
2023-04-14T12:18:53.533Z,8.08
2023-04-14T12:21:20.426Z,7.95
2023-04-14T12:23:50.548Z,7.94
2023-04-14T12:26:17.513Z,8.02
2023-04-14T12:28:46.706Z,7.67
2023-04-14T12:31:13.425Z,7.73
2023-04-14T12:33:40.184Z,7.86
2023-04-14T12:36:10.182Z,7.88
2023-04-14T12:38:36.936Z,8.02
2023-04-14T12:41:04.934Z,8.01
2023-04-14T12:43:37.534Z,8.04
2023-04-14T12:46:05.698Z,7.95
2023-04-14T12:48:48.216Z,7.96
2023-04-14T12:51:16.741Z,7.83
2023-04-14T12:53:47.768Z,8.00
2023-04-14T12:56:22.255Z,8.18
2023-04-14T12:58:49.563Z,8.37
2023-04-14T13:01:20.066Z,8.25
2023-04-14T13:03:50.478Z,8.29
2023-04-14T13:06:19.411Z,8.36
2023-04-14T13:08:47.714Z,8.41
2023-04-14T13:11:14.932Z,8.33
2023-04-14T13:13:42.261Z,8.26
2023-04-14T13:16:14.008Z,8.21
2023-04-14T13:18:43.585Z,8.33
2023-04-14T13:21:10.368Z,8.24
2023-04-14T13:23:37.032Z,8.25
2023-04-14T13:26:03.815Z,8.34
2023-04-14T13:28:30.653Z,8.29
2023-04-14T13:30:58.020Z,8.31
2023-04-14T13:33:26.121Z,8.34
2023-04-14T13:35:53.556Z,8.40
2023-04-14T13:38:20.205Z,8.36
2023-04-14T13:40:48.221Z,8.35
2023-04-14T13:43:16.477Z,8.30
2023-04-14T13:45:43.402Z,8.31
2023-04-14T13:48:10.055Z,8.24
2023-04-14T13:50:36.733Z,8.22
2023-04-14T13:53:03.572Z,8.30
2023-04-14T13:55:30.442Z,8.32
2023-04-14T13:57:57.164Z,8.35
2023-04-14T14:00:23.796Z,8.35
2023-04-14T14:02:51.822Z,8.35
2023-04-14T14:05:18.611Z,8.43
2023-04-14T14:07:45.605Z,8.40
2023-04-14T14:10:12.523Z,8.27
2023-04-14T14:12:39.294Z,8.28
2023-04-14T14:15:09.160Z,8.38
2023-04-14T14:17:37.177Z,8.40
2023-04-14T14:20:04.222Z,8.33
2023-04-14T14:22:30.814Z,8.36
2023-04-14T14:25:10.772Z,8.28
2023-04-14T14:27:44.883Z,8.40
2023-04-14T14:30:11.957Z,8.46
2023-04-14T14:32:38.621Z,8.43
2023-04-14T14:35:05.736Z,8.40
2023-04-14T14:37:32.348Z,8.12
2023-04-14T14:39:59.030Z,7.98
2023-04-14T14:42:26.927Z,8.38
2023-04-14T14:44:53.897Z,8.23
2023-04-14T14:47:20.976Z,8.36
2023-04-14T14:49:57.172Z,8.35
2023-04-14T14:52:29.764Z,8.22
2023-04-14T14:54:56.814Z,8.33
2023-04-14T14:57:23.406Z,8.31
2023-04-14T14:59:50.056Z,8.31
2023-04-14T15:02:17.147Z,8.29
2023-04-14T15:04:44.614Z,8.30
2023-04-14T15:07:13.032Z,8.37
2023-04-14T15:09:40.940Z,8.34
2023-04-14T15:12:08.288Z,8.32
2023-04-14T15:14:35.044Z,8.33
2023-04-14T15:17:02.531Z,8.18
2023-04-14T15:19:29.273Z,8.15
2023-04-14T15:21:55.961Z,8.08
2023-04-14T15:24:22.612Z,8.08
2023-04-14T15:26:49.240Z,7.94
2023-04-14T15:29:16.301Z,8.08
2023-04-14T15:31:42.967Z,7.99
2023-04-14T15:34:09.639Z,8.02
2023-04-14T15:36:36.237Z,8.15
2023-04-14T15:39:02.887Z,8.14
2023-04-14T15:41:29.484Z,8.17
2023-04-14T15:43:56.174Z,8.19
2023-04-14T15:46:22.928Z,8.30
2023-04-14T15:48:49.667Z,8.29
2023-04-14T15:51:16.360Z,8.18
2023-04-14T15:53:43.039Z,8.28
2023-04-14T15:56:09.763Z,8.29
2023-04-14T15:58:36.901Z,8.25
2023-04-14T16:01:07.342Z,8.24
2023-04-14T16:03:34.518Z,8.14
2023-04-14T16:06:06.828Z,8.05
2023-04-14T16:08:33.488Z,7.95
2023-04-14T16:11:00.278Z,7.95
2023-04-14T16:13:27.416Z,8.03
2023-04-14T16:15:54.254Z,8.21
2023-04-14T16:18:21.240Z,8.20
2023-04-14T16:20:50.115Z,8.14
2023-04-14T16:23:18.044Z,8.02
2023-04-14T16:25:49.412Z,8.12
2023-04-14T16:28:16.335Z,8.07
2023-04-14T16:30:43.182Z,8.09
2023-04-14T16:33:09.958Z,7.96
2023-04-14T16:35:36.737Z,8.06
2023-04-14T16:38:08.076Z,8.01
2023-04-14T16:40:38.047Z,8.02
2023-04-14T16:43:04.793Z,8.02
2023-04-14T16:45:32.156Z,8.07
2023-04-14T16:47:59.308Z,8.09
2023-04-14T16:50:26.488Z,8.19
2023-04-14T16:52:53.251Z,8.23
2023-04-14T16:55:19.851Z,8.07
2023-04-14T16:57:46.449Z,7.98
2023-04-14T17:00:14.081Z,7.88
2023-04-14T17:02:41.203Z,8.11
2023-04-14T17:05:10.224Z,8.07
2023-04-14T17:07:37.114Z,8.06
2023-04-14T17:10:03.880Z,8.16
2023-04-14T17:12:30.623Z,8.08
2023-04-14T17:14:59.398Z,7.96
2023-04-14T17:20:22.225Z,7.85
2023-04-14T17:22:49.712Z,7.85
2023-04-14T17:25:19.624Z,7.96
2023-04-14T17:27:46.556Z,8.05
2023-04-14T17:30:13.342Z,7.95
2023-04-14T17:32:41.743Z,7.94
2023-04-14T17:35:09.374Z,7.94
2023-04-14T17:37:36.474Z,7.77
2023-04-14T17:40:04.945Z,7.77
2023-04-14T17:42:32.192Z,7.69
2023-04-14T17:44:58.814Z,7.70
2023-04-14T17:47:25.479Z,7.70
2023-04-14T17:49:52.728Z,7.80
2023-04-14T17:52:20.150Z,7.79
2023-04-14T17:54:47.152Z,7.77
2023-04-14T17:57:13.871Z,7.68
2023-04-14T17:59:41.571Z,7.67
2023-04-14T18:02:14.110Z,7.74
2023-04-14T18:04:40.880Z,7.75
2023-04-14T18:07:07.678Z,7.69
2023-04-14T18:09:34.908Z,7.72
2023-04-14T18:12:01.504Z,7.70
2023-04-14T18:14:28.125Z,7.67
2023-04-14T18:16:54.924Z,7.71
2023-04-14T18:19:23.044Z,7.80
2023-04-14T18:21:49.701Z,7.78
2023-04-14T18:26:45.962Z,7.94
2023-04-14T18:29:12.608Z,7.88
2023-04-14T18:31:39.382Z,7.84
2023-04-14T18:34:06.448Z,7.87
2023-04-14T18:36:33.468Z,7.79
2023-04-14T18:39:01.223Z,7.78
2023-04-14T18:41:28.159Z,7.81
2023-04-14T18:43:54.843Z,7.80
2023-04-14T18:46:21.856Z,7.77
2023-04-14T18:48:49.387Z,7.78
2023-04-14T18:51:16.622Z,7.75
2023-04-14T18:53:46.418Z,7.63
2023-04-14T18:56:13.597Z,7.55
2023-04-14T18:58:40.454Z,7.54
2023-04-14T19:01:07.360Z,7.63
2023-04-14T19:03:34.073Z,7.65
2023-04-14T19:06:01.647Z,7.55
2023-04-14T19:08:28.320Z,7.62
2023-04-14T19:10:55.040Z,7.50
2023-04-14T19:13:22.258Z,7.48
2023-04-14T19:15:49.212Z,7.41
2023-04-14T19:18:17.188Z,7.58
2023-04-14T19:20:45.656Z,7.65
2023-04-14T19:23:12.400Z,7.61
2023-04-14T19:25:40.565Z,7.59
2023-04-14T19:28:07.980Z,7.62
2023-04-14T19:30:35.580Z,7.59
2023-04-14T19:33:02.299Z,7.52
2023-04-14T19:35:30.755Z,7.49
2023-04-14T19:37:57.952Z,7.52
2023-04-14T19:40:25.288Z,7.42
2023-04-14T19:42:55.269Z,7.53
2023-04-14T19:45:22.041Z,7.58
2023-04-14T19:47:48.881Z,7.52
2023-04-14T19:50:15.529Z,7.68
2023-04-14T19:52:43.901Z,7.60
2023-04-14T19:55:10.636Z,7.64
2023-04-14T19:57:37.292Z,7.57
2023-04-14T20:00:06.777Z,7.56
2023-04-14T20:02:34.296Z,7.55
2023-04-14T20:05:01.179Z,7.57
2023-04-14T20:07:27.778Z,7.57
2023-04-14T20:09:54.700Z,7.51
2023-04-14T20:12:21.612Z,7.53
2023-04-14T20:14:48.313Z,7.53
2023-04-14T20:17:14.907Z,7.47
2023-04-14T20:19:41.924Z,7.43
2023-04-14T20:22:09.407Z,7.56
2023-04-14T20:24:37.341Z,7.62
2023-04-14T20:27:04.347Z,7.53
2023-04-14T20:29:30.957Z,7.57
2023-04-14T20:31:57.628Z,7.45
2023-04-14T20:34:24.244Z,7.68
2023-04-14T20:36:53.055Z,7.77
2023-04-14T20:39:19.747Z,7.67
2023-04-14T20:41:46.715Z,7.57
2023-04-14T20:44:13.428Z,7.38
2023-04-14T20:46:40.510Z,7.57
2023-04-14T20:49:07.605Z,7.66
2023-04-14T20:51:34.419Z,7.62
2023-04-14T20:54:01.966Z,7.57
2023-04-14T20:56:30.704Z,7.52
2023-04-14T20:58:58.662Z,7.61
2023-04-14T21:01:27.755Z,7.66
2023-04-14T21:03:54.876Z,7.66
2023-04-14T21:06:22.123Z,7.61
2023-04-14T21:08:48.765Z,7.62
2023-04-14T21:11:17.951Z,7.61
2023-04-14T21:15:27.145Z,7.60
2023-04-14T21:16:34.011Z,7.65
2023-04-14T21:19:02.494Z,7.61
2023-04-14T21:21:31.934Z,7.67
2023-04-14T21:23:58.829Z,7.62
2023-04-14T21:26:26.977Z,7.52
2023-04-14T21:28:53.663Z,7.51
2023-04-14T21:31:20.626Z,7.58
2023-04-14T21:33:47.299Z,7.60
2023-04-14T21:36:14.547Z,7.54
2023-04-14T21:38:41.196Z,7.47
2023-04-14T21:41:08.173Z,7.49
2023-04-14T21:43:35.195Z,7.40
2023-04-14T21:46:01.985Z,7.48
2023-04-14T21:48:28.790Z,7.51
2023-04-14T21:50:55.406Z,7.52
2023-04-14T21:53:22.264Z,7.45
2023-04-14T21:56:09.208Z,7.57
2023-04-14T21:58:36.596Z,7.43
2023-04-14T22:01:03.788Z,7.48
2023-04-14T22:03:30.914Z,7.45
2023-04-14T22:05:57.560Z,7.39
2023-04-14T22:08:24.464Z,7.43
2023-04-14T22:10:52.362Z,7.43
2023-04-14T22:13:19.093Z,7.36
2023-04-14T22:15:45.791Z,7.39
2023-04-14T22:18:12.415Z,7.46
2023-04-14T22:20:39.735Z,7.40
2023-04-14T22:23:06.744Z,7.41
2023-04-14T22:25:34.716Z,7.40
2023-04-14T22:28:01.717Z,7.38
2023-04-14T22:30:28.453Z,7.34
2023-04-14T22:32:56.023Z,7.34
2023-04-14T22:35:23.057Z,7.36
2023-04-14T22:37:49.754Z,7.42
2023-04-14T22:40:16.938Z,7.36
2023-04-14T22:42:46.354Z,7.40
2023-04-14T22:45:13.638Z,7.32
2023-04-14T22:47:40.691Z,7.28
2023-04-14T22:50:08.139Z,7.42
2023-04-14T22:52:34.817Z,7.36
2023-04-14T22:55:01.512Z,7.38
2023-04-14T22:57:28.364Z,7.32
2023-04-14T22:59:55.161Z,7.31
2023-04-14T23:02:22.139Z,7.35
2023-04-14T23:04:49.189Z,7.43
2023-04-14T23:07:16.210Z,7.37
2023-04-14T23:09:42.869Z,7.39
2023-04-14T23:12:09.612Z,7.52
2023-04-14T23:14:36.668Z,7.45
2023-04-14T23:17:05.749Z,7.38
2023-04-14T23:19:33.625Z,7.41
2023-04-14T23:22:00.278Z,7.45
2023-04-14T23:24:26.997Z,7.42
2023-04-14T23:26:53.649Z,7.34
2023-04-14T23:29:20.454Z,7.39
2023-04-14T23:31:47.408Z,7.45
2023-04-14T23:34:14.081Z,7.44
2023-04-14T23:36:41.726Z,7.49
2023-04-14T23:39:08.458Z,7.37
2023-04-14T23:41:35.493Z,7.30
2023-04-14T23:44:02.190Z,7.24
2023-04-14T23:46:28.851Z,7.27
2023-04-14T23:48:56.479Z,7.24
2023-04-14T23:51:23.970Z,7.28
2023-04-14T23:53:50.846Z,7.27
2023-04-14T23:56:17.674Z,7.33
2023-04-14T23:58:44.669Z,7.36
